createdAt,value
2018-08-13T00:01:48.132Z,72.26
2018-08-13T00:03:45.128Z,72.55
2018-08-13T00:04:47.169Z,72.26
2018-08-13T00:05:39.146Z,71.49
2018-08-13T00:06:39.641Z,71.20
2018-08-13T00:07:39.131Z,71.30
2018-08-13T00:08:41.124Z,71.11
2018-08-13T00:09:39.135Z,71.30
2018-08-13T00:10:38.634Z,71.30
2018-08-13T00:11:38.583Z,71.30
2018-08-13T00:12:38.573Z,71.40
2018-08-13T00:13:39.139Z,71.20
2018-08-13T00:14:39.144Z,71.88
2018-08-13T00:15:39.128Z,71.78
2018-08-13T00:16:38.585Z,71.20
2018-08-13T00:17:41.238Z,71.97
2018-08-13T00:18:38.767Z,71.97
2018-08-13T00:19:38.647Z,71.30
2018-08-13T00:20:38.644Z,71.20
2018-08-13T00:21:38.633Z,70.92
2018-08-13T00:22:38.745Z,70.92
2018-08-13T00:23:38.749Z,70.92
2018-08-13T00:24:38.661Z,70.92
2018-08-13T00:25:38.663Z,71.49
2018-08-13T00:26:38.624Z,70.92
2018-08-13T00:27:38.669Z,70.92
2018-08-13T00:28:38.617Z,70.92
2018-08-13T00:29:38.680Z,71.11
2018-08-13T00:30:38.637Z,71.20
2018-08-13T00:31:38.634Z,71.69
2018-08-13T00:32:38.638Z,71.97
2018-08-13T00:33:38.644Z,71.30
2018-08-13T00:34:38.711Z,71.30
2018-08-13T00:35:38.670Z,71.30
2018-08-13T00:36:38.736Z,71.78
2018-08-13T00:37:38.705Z,71.78
2018-08-13T00:38:38.710Z,72.07
2018-08-13T00:39:38.691Z,71.11
2018-08-13T00:40:38.723Z,71.01
2018-08-13T00:41:38.704Z,70.92
2018-08-13T00:42:38.729Z,70.92
2018-08-13T00:43:38.675Z,70.92
2018-08-13T00:44:38.680Z,70.92
2018-08-13T00:45:38.697Z,71.01
2018-08-13T00:46:38.745Z,71.01
2018-08-13T00:47:38.681Z,70.92
2018-08-13T00:48:38.721Z,71.30
2018-08-13T00:49:38.776Z,71.30
2018-08-13T00:50:38.745Z,71.88
2018-08-13T00:51:38.733Z,71.30
2018-08-13T00:52:38.732Z,69.85
2018-08-13T00:53:38.740Z,70.15
2018-08-13T00:54:38.704Z,70.72
2018-08-13T00:55:38.709Z,70.43
2018-08-13T00:56:38.767Z,70.62
2018-08-13T00:57:38.717Z,70.62
2018-08-13T00:58:38.722Z,70.82
2018-08-13T00:59:38.905Z,70.82
2018-08-13T01:00:38.752Z,71.11
2018-08-13T01:01:38.748Z,71.20
2018-08-13T01:02:38.747Z,71.40
2018-08-13T01:03:38.777Z,70.92
2018-08-13T01:04:38.769Z,71.40
2018-08-13T01:05:50.169Z,71.97
2018-08-13T01:06:41.151Z,71.97
2018-08-13T01:07:40.668Z,72.36
2018-08-13T01:08:38.784Z,72.84
2018-08-13T01:09:38.790Z,72.45
2018-08-13T01:10:38.777Z,72.55
2018-08-13T01:11:38.794Z,71.59
2018-08-13T01:12:38.844Z,71.30
2018-08-13T01:13:38.941Z,71.30
2018-08-13T01:14:38.761Z,71.88
2018-08-13T01:15:38.770Z,71.97
2018-08-13T01:16:38.844Z,72.07
2018-08-13T01:17:39.656Z,71.97
2018-08-13T01:18:38.828Z,71.78
2018-08-13T01:19:38.835Z,71.11
2018-08-13T01:20:38.802Z,71.11
2018-08-13T01:21:38.809Z,71.88
2018-08-13T01:22:38.813Z,71.97
2018-08-13T01:23:38.813Z,71.97
2018-08-13T01:24:38.832Z,72.55
2018-08-13T01:25:38.822Z,71.78
2018-08-13T01:26:38.797Z,71.40
2018-08-13T01:27:38.831Z,71.69
2018-08-13T01:28:38.836Z,72.65
2018-08-13T01:29:38.858Z,72.55
2018-08-13T01:30:38.937Z,72.55
2018-08-13T01:31:38.827Z,72.36
2018-08-13T01:32:38.854Z,71.20
2018-08-13T01:33:38.866Z,70.82
2018-08-13T01:34:38.868Z,71.30
2018-08-13T01:35:38.863Z,70.53
2018-08-13T01:36:38.865Z,70.82
2018-08-13T01:37:39.672Z,70.62
2018-08-13T01:38:38.900Z,71.20
2018-08-13T01:39:38.999Z,70.72
2018-08-13T01:40:38.833Z,70.82
2018-08-13T01:41:38.855Z,70.82
2018-08-13T01:42:38.950Z,70.43
2018-08-13T01:43:38.912Z,69.85
2018-08-13T01:44:38.850Z,69.85
2018-08-13T01:45:39.671Z,69.95
2018-08-13T01:46:38.913Z,70.43
2018-08-13T01:47:38.924Z,70.82
2018-08-13T01:48:38.944Z,70.72
2018-08-13T01:49:38.919Z,70.34
2018-08-13T01:50:38.919Z,70.05
2018-08-13T01:51:38.911Z,70.53
2018-08-13T01:52:38.929Z,71.11
2018-08-13T01:53:38.913Z,70.43
2018-08-13T01:54:38.922Z,69.95
2018-08-13T01:55:38.885Z,70.05
2018-08-13T01:56:38.919Z,70.24
2018-08-13T01:57:38.956Z,69.47
2018-08-13T01:58:38.913Z,69.57
2018-08-13T01:59:38.935Z,69.67
2018-08-13T02:00:38.960Z,69.47
2018-08-13T02:01:38.959Z,69.47
2018-08-13T02:02:38.942Z,69.38
2018-08-13T02:03:38.908Z,69.85
2018-08-13T02:04:38.963Z,69.76
2018-08-13T02:05:38.980Z,69.85
2018-08-13T02:06:38.940Z,69.76
2018-08-13T02:07:38.965Z,69.09
2018-08-13T02:08:39.679Z,69.76
2018-08-13T02:09:38.931Z,69.47
2018-08-13T02:10:38.954Z,69.09
2018-08-13T02:11:38.937Z,68.99
2018-08-13T02:12:38.934Z,68.90
2018-08-13T02:13:38.946Z,69.18
2018-08-13T02:14:38.981Z,69.38
2018-08-13T02:15:38.949Z,69.18
2018-08-13T02:16:38.979Z,69.09
2018-08-13T02:17:38.963Z,69.47
2018-08-13T02:18:38.987Z,69.95
2018-08-13T02:19:38.988Z,69.82
2018-08-13T02:20:38.970Z,70.01
2018-08-13T02:21:38.992Z,69.53
2018-08-13T02:22:38.975Z,69.82
2018-08-13T02:23:38.989Z,69.53
2018-08-13T02:24:38.960Z,70.11
2018-08-13T02:25:39.012Z,70.01
2018-08-13T02:26:39.015Z,70.68
2018-08-13T02:27:38.995Z,70.40
2018-08-13T02:28:38.991Z,70.21
2018-08-13T02:29:39.028Z,71.26
2018-08-13T02:30:38.992Z,69.92
2018-08-13T02:31:39.002Z,70.88
2018-08-13T02:32:39.037Z,69.92
2018-08-13T02:33:39.032Z,71.17
2018-08-13T02:34:39.039Z,70.98
2018-08-13T02:35:39.042Z,70.59
2018-08-13T02:36:39.055Z,71.26
2018-08-13T02:37:39.125Z,71.17
2018-08-13T02:38:39.060Z,71.17
2018-08-13T02:39:39.071Z,71.84
2018-08-13T02:40:39.061Z,71.65
2018-08-13T02:41:39.073Z,72.23
2018-08-13T02:42:39.025Z,72.80
2018-08-13T02:43:39.054Z,73.38
2018-08-13T02:44:39.055Z,73.28
2018-08-13T02:45:39.036Z,73.47
2018-08-13T02:46:39.084Z,72.90
2018-08-13T02:47:39.694Z,73.67
2018-08-13T02:48:39.100Z,73.09
2018-08-13T02:49:39.085Z,73.47
2018-08-13T02:50:39.087Z,73.09
2018-08-13T02:51:39.160Z,72.90
2018-08-13T02:52:39.171Z,73.28
2018-08-13T02:53:39.142Z,72.61
2018-08-13T02:54:39.078Z,72.52
2018-08-13T02:55:40.773Z,72.90
2018-08-13T02:56:39.087Z,73.28
2018-08-13T02:57:39.063Z,72.80
2018-08-13T02:58:39.111Z,72.90
2018-08-13T02:59:39.108Z,72.32
2018-08-13T03:00:39.196Z,72.32
2018-08-13T03:01:39.187Z,72.52
2018-08-13T03:02:39.108Z,72.42
2018-08-13T03:03:39.103Z,72.42
2018-08-13T03:04:39.124Z,72.71
2018-08-13T03:05:39.178Z,72.13
2018-08-13T03:06:39.157Z,72.42
2018-08-13T03:07:39.151Z,72.13
2018-08-13T03:08:39.121Z,72.80
2018-08-13T03:09:39.139Z,72.42
2018-08-13T03:10:39.099Z,72.13
2018-08-13T03:11:39.175Z,72.61
2018-08-13T03:12:39.152Z,72.61
2018-08-13T03:13:39.160Z,72.52
2018-08-13T03:14:39.169Z,72.52
2018-08-13T03:15:39.133Z,72.71
2018-08-13T03:16:39.121Z,72.32
2018-08-13T03:17:39.218Z,73.09
2018-08-13T03:18:39.116Z,73.00
2018-08-13T03:19:39.130Z,73.00
2018-08-13T03:20:39.156Z,72.90
2018-08-13T03:21:39.175Z,73.09
2018-08-13T03:22:39.157Z,73.57
2018-08-13T03:23:39.194Z,73.67
2018-08-13T03:24:39.164Z,73.67
2018-08-13T03:25:39.199Z,74.05
2018-08-13T03:26:39.216Z,74.15
2018-08-13T03:27:39.162Z,74.54
2018-08-13T03:28:39.178Z,74.15
2018-08-13T03:29:39.151Z,73.96
2018-08-13T03:30:39.187Z,73.67
2018-08-13T03:31:39.204Z,73.38
2018-08-13T03:32:39.172Z,72.90
2018-08-13T03:33:39.181Z,73.47
2018-08-13T03:34:39.217Z,73.38
2018-08-13T03:35:39.273Z,72.61
2018-08-13T03:36:39.230Z,73.19
2018-08-13T03:37:39.178Z,73.28
2018-08-13T03:38:39.227Z,73.28
2018-08-13T03:39:39.194Z,73.67
2018-08-13T03:40:39.247Z,73.28
2018-08-13T03:41:39.205Z,73.28
2018-08-13T03:42:39.716Z,73.19
2018-08-13T03:43:39.213Z,73.19
2018-08-13T03:44:39.292Z,73.47
2018-08-13T03:45:39.290Z,73.47
2018-08-13T03:46:39.364Z,73.19
2018-08-13T03:47:39.307Z,74.05
2018-08-13T03:48:39.231Z,73.71
2018-08-13T03:49:39.262Z,73.19
2018-08-13T03:50:39.254Z,73.47
2018-08-13T03:51:39.245Z,73.86
2018-08-13T03:52:39.283Z,74.19
2018-08-13T03:53:39.331Z,74.05
2018-08-13T03:54:39.228Z,73.67
2018-08-13T03:55:39.273Z,73.86
2018-08-13T03:56:39.269Z,73.86
2018-08-13T03:57:39.282Z,73.67
2018-08-13T03:58:39.351Z,74.25
2018-08-13T03:59:39.299Z,73.96
2018-08-13T04:00:39.288Z,73.96
2018-08-13T04:01:39.340Z,74.05
2018-08-13T04:02:39.330Z,73.86
2018-08-13T04:03:39.302Z,73.90
2018-08-13T04:04:39.268Z,74.09
2018-08-13T04:05:39.263Z,74.05
2018-08-13T04:06:39.276Z,74.82
2018-08-13T04:07:39.274Z,74.92
2018-08-13T04:08:39.306Z,75.31
2018-08-13T04:09:39.260Z,75.31
2018-08-13T04:10:39.296Z,75.79
2018-08-13T04:11:39.418Z,75.59
2018-08-13T04:12:39.340Z,75.59
2018-08-13T04:13:39.364Z,75.98
2018-08-13T04:14:39.323Z,75.98
2018-08-13T04:15:39.318Z,75.98
2018-08-13T04:16:39.289Z,76.07
2018-08-13T04:17:39.301Z,75.59
2018-08-13T04:18:39.322Z,75.31
2018-08-13T04:19:39.313Z,75.31
2018-08-13T04:20:39.373Z,74.92
2018-08-13T04:21:39.339Z,76.40
2018-08-13T04:22:39.398Z,75.73
2018-08-13T04:23:39.339Z,75.88
2018-08-13T04:24:39.300Z,76.94
2018-08-13T04:25:39.393Z,77.13
2018-08-13T04:26:39.336Z,77.04
2018-08-13T04:27:39.365Z,76.65
2018-08-13T04:28:39.323Z,76.65
2018-08-13T04:29:39.349Z,76.56
2018-08-13T04:30:39.387Z,76.84
2018-08-13T04:31:39.373Z,76.75
2018-08-13T04:32:39.364Z,76.17
2018-08-13T04:33:39.343Z,76.17
2018-08-13T04:34:39.370Z,77.13
2018-08-13T04:35:39.397Z,76.84
2018-08-13T04:36:39.402Z,76.26
2018-08-13T04:37:39.356Z,76.46
2018-08-13T04:38:39.408Z,76.26
2018-08-13T04:39:39.432Z,76.07
2018-08-13T04:40:40.241Z,75.82
2018-08-13T04:41:39.410Z,75.73
2018-08-13T04:42:39.398Z,76.11
2018-08-13T04:43:39.420Z,76.11
2018-08-13T04:44:39.418Z,75.63
2018-08-13T04:45:39.407Z,75.15
2018-08-13T04:46:39.462Z,74.86
2018-08-13T04:47:39.433Z,74.96
2018-08-13T04:48:39.446Z,75.34
2018-08-13T04:49:39.406Z,74.96
2018-08-13T04:50:39.391Z,76.01
2018-08-13T04:51:39.440Z,75.63
2018-08-13T04:52:39.390Z,75.24
2018-08-13T04:53:39.473Z,75.34
2018-08-13T04:54:39.409Z,75.44
2018-08-13T04:55:39.474Z,74.96
2018-08-13T04:56:39.475Z,75.63
2018-08-13T04:57:39.443Z,74.86
2018-08-13T04:58:39.426Z,75.54
2018-08-13T04:59:39.454Z,75.63
2018-08-13T05:00:39.434Z,75.44
2018-08-13T05:01:39.449Z,75.34
2018-08-13T05:02:39.457Z,75.44
2018-08-13T05:03:39.425Z,75.54
2018-08-13T05:04:39.470Z,75.05
2018-08-13T05:05:39.437Z,75.24
2018-08-13T05:06:39.442Z,75.34
2018-08-13T05:07:39.463Z,76.11
2018-08-13T05:08:39.465Z,75.63
2018-08-13T05:09:39.475Z,75.44
2018-08-13T05:10:39.447Z,75.34
2018-08-13T05:11:39.519Z,75.24
2018-08-13T05:12:39.501Z,75.24
2018-08-13T05:13:39.462Z,76.11
2018-08-13T05:14:39.474Z,76.78
2018-08-13T05:15:39.489Z,76.78
2018-08-13T05:16:39.497Z,76.88
2018-08-13T05:17:39.471Z,77.08
2018-08-13T05:18:39.545Z,76.98
2018-08-13T05:19:39.463Z,76.59
2018-08-13T05:20:39.530Z,76.88
2018-08-13T05:21:39.508Z,76.11
2018-08-13T05:22:39.501Z,76.11
2018-08-13T05:23:39.490Z,75.54
2018-08-13T05:24:39.686Z,75.73
2018-08-13T05:25:39.564Z,76.69
2018-08-13T05:26:39.497Z,76.01
2018-08-13T05:27:39.496Z,76.73
2018-08-13T05:28:39.502Z,77.01
2018-08-13T05:29:39.501Z,76.53
2018-08-13T05:30:39.524Z,76.53
2018-08-13T05:31:39.540Z,76.34
2018-08-13T05:32:39.585Z,76.63
2018-08-13T05:33:39.544Z,77.31
2018-08-13T05:34:39.646Z,76.73
2018-08-13T05:35:39.530Z,76.92
2018-08-13T05:36:39.542Z,76.57
2018-08-13T05:37:39.653Z,77.40
2018-08-13T05:38:39.570Z,77.40
2018-08-13T05:39:39.580Z,77.40
2018-08-13T05:40:39.583Z,77.06
2018-08-13T05:41:39.552Z,77.15
2018-08-13T05:42:39.576Z,76.57
2018-08-13T05:43:39.620Z,76.48
2018-08-13T05:44:39.564Z,75.99
2018-08-13T05:45:39.579Z,75.99
2018-08-13T05:46:39.605Z,75.61
2018-08-13T05:47:39.595Z,76.28
2018-08-13T05:48:39.592Z,76.09
2018-08-13T05:49:39.586Z,76.53
2018-08-13T05:50:39.619Z,77.06
2018-08-13T05:51:39.599Z,77.06
2018-08-13T05:52:39.581Z,76.86
2018-08-13T05:53:39.603Z,77.53
2018-08-13T05:54:39.603Z,77.73
2018-08-13T05:55:39.676Z,77.83
2018-08-13T05:56:39.579Z,77.83
2018-08-13T05:57:40.280Z,78.59
2018-08-13T05:58:39.631Z,78.02
2018-08-13T05:59:39.637Z,77.15
2018-08-13T06:00:39.648Z,78.31
2018-08-13T06:01:39.584Z,77.73
2018-08-13T06:02:39.626Z,77.73
2018-08-13T06:03:39.673Z,78.40
2018-08-13T06:04:39.633Z,78.31
2018-08-13T06:05:39.642Z,78.21
2018-08-13T06:06:39.654Z,78.31
2018-08-13T06:07:39.661Z,78.21
2018-08-13T06:08:39.656Z,77.83
2018-08-13T06:09:39.654Z,77.92
2018-08-13T06:10:39.853Z,78.79
2018-08-13T06:11:39.725Z,78.50
2018-08-13T06:12:39.659Z,78.79
2018-08-13T06:13:39.637Z,78.59
2018-08-13T06:14:39.634Z,80.52
2018-08-13T06:15:39.668Z,83.03
2018-08-13T06:16:39.674Z,84.47
2018-08-13T06:17:39.635Z,84.47
2018-08-13T06:18:39.642Z,83.70
2018-08-13T06:19:39.675Z,85.19
2018-08-13T06:20:39.657Z,86.01
2018-08-13T06:21:39.659Z,85.91
2018-08-13T06:22:39.708Z,87.55
2018-08-13T06:23:39.752Z,88.61
2018-08-13T06:24:39.673Z,89.00
2018-08-13T06:25:39.710Z,89.48
2018-08-13T06:26:39.666Z,89.48
2018-08-13T06:27:39.701Z,87.84
2018-08-13T06:28:40.786Z,87.84
2018-08-13T06:29:39.701Z,87.21
2018-08-13T06:30:39.792Z,86.15
2018-08-13T06:31:39.728Z,87.26
2018-08-13T06:32:39.749Z,86.11
2018-08-13T06:33:39.721Z,87.30
2018-08-13T06:34:39.737Z,87.70
2018-08-13T06:35:39.742Z,87.02
2018-08-13T06:36:39.748Z,86.92
2018-08-13T06:37:39.738Z,87.50
2018-08-13T06:38:39.750Z,85.38
2018-08-13T06:39:39.739Z,85.82
2018-08-13T06:40:39.782Z,86.92
2018-08-13T06:41:39.738Z,86.40
2018-08-13T06:42:39.768Z,87.07
2018-08-13T06:43:39.724Z,87.94
2018-08-13T06:44:39.828Z,87.94
2018-08-13T06:45:39.744Z,88.42
2018-08-13T06:46:39.750Z,89.00
2018-08-13T06:47:39.758Z,89.39
2018-08-13T06:48:39.746Z,89.58
2018-08-13T06:49:39.747Z,89.39
2018-08-13T06:50:39.809Z,89.48
2018-08-13T06:51:39.775Z,88.95
2018-08-13T06:52:39.804Z,88.85
2018-08-13T06:53:39.777Z,89.72
2018-08-13T06:54:39.823Z,90.58
2018-08-13T06:55:39.794Z,90.48
2018-08-13T06:56:39.786Z,91.16
2018-08-13T06:57:39.817Z,91.06
2018-08-13T06:58:39.785Z,91.26
2018-08-13T06:59:39.786Z,91.26
2018-08-13T07:00:39.897Z,91.93
2018-08-13T07:01:40.396Z,92.41
2018-08-13T07:02:39.819Z,92.37
2018-08-13T07:03:39.794Z,92.27
2018-08-13T07:04:39.841Z,93.14
2018-08-13T07:05:39.882Z,93.04
2018-08-13T07:06:39.929Z,93.81
2018-08-13T07:07:39.823Z,93.72
2018-08-13T07:08:39.877Z,94.44
2018-08-13T07:09:39.850Z,94.54
2018-08-13T07:10:39.862Z,94.63
2018-08-13T07:11:39.872Z,94.06
2018-08-13T07:12:40.306Z,93.96
2018-08-13T07:13:39.840Z,94.34
2018-08-13T07:14:39.893Z,94.54
2018-08-13T07:15:39.870Z,93.86
2018-08-13T07:16:39.891Z,94.44
2018-08-13T07:17:39.871Z,94.82
2018-08-13T07:18:39.847Z,94.15
2018-08-13T07:19:39.854Z,95.02
2018-08-13T07:20:39.929Z,94.34
2018-08-13T07:21:39.844Z,95.07
2018-08-13T07:22:39.857Z,95.16
2018-08-13T07:23:39.849Z,94.87
2018-08-13T07:24:39.881Z,94.97
2018-08-13T07:25:39.997Z,94.49
2018-08-13T07:26:39.859Z,94.54
2018-08-13T07:27:39.922Z,94.68
2018-08-13T07:28:39.866Z,93.14
2018-08-13T07:29:39.889Z,93.81
2018-08-13T07:30:39.904Z,93.81
2018-08-13T07:31:40.046Z,92.90
2018-08-13T07:32:39.942Z,91.12
2018-08-13T07:33:40.027Z,91.31
2018-08-13T07:34:39.999Z,91.79
2018-08-13T07:35:40.823Z,90.64
2018-08-13T07:36:40.333Z,89.86
2018-08-13T07:37:39.961Z,89.09
2018-08-13T07:38:39.947Z,90.92
2018-08-13T07:39:40.082Z,90.73
2018-08-13T07:40:40.026Z,87.17
2018-08-13T07:41:39.978Z,87.46
2018-08-13T07:42:40.051Z,91.02
2018-08-13T07:43:39.992Z,90.11
2018-08-13T07:44:40.029Z,90.30
2018-08-13T07:45:40.091Z,85.78
2018-08-13T07:46:40.033Z,88.09
2018-08-13T07:47:40.132Z,87.32
2018-08-13T07:48:40.826Z,88.76
2018-08-13T07:49:40.029Z,87.27
2018-08-13T07:50:40.025Z,85.83
2018-08-13T07:51:40.221Z,85.83
2018-08-13T07:52:40.030Z,85.74
2018-08-13T07:53:40.021Z,87.60
2018-08-13T07:54:40.041Z,87.70
2018-08-13T07:55:40.042Z,89.05
2018-08-13T07:56:40.206Z,88.57
2018-08-13T07:57:40.421Z,87.36
2018-08-13T07:58:40.041Z,87.17
2018-08-13T07:59:40.831Z,88.90
2018-08-13T08:00:40.440Z,87.88
2018-08-13T08:01:40.016Z,89.43
2018-08-13T08:02:40.061Z,87.40
2018-08-13T08:03:40.825Z,91.02
2018-08-13T08:04:40.153Z,90.34
2018-08-13T08:05:41.025Z,90.48
2018-08-13T08:06:40.144Z,93.08
2018-08-13T08:07:40.157Z,92.36
2018-08-13T08:08:40.425Z,91.20
2018-08-13T08:11:14.327Z,91.97
2018-08-13T08:12:12.667Z,93.90
2018-08-13T08:13:13.084Z,94.20
2018-08-13T08:14:13.369Z,91.30
2018-08-13T08:15:12.291Z,92.16
2018-08-13T08:16:12.297Z,92.55
2018-08-13T08:17:12.305Z,93.66
2018-08-13T08:18:12.311Z,91.53
2018-08-13T08:19:12.337Z,93.08
2018-08-13T08:20:12.310Z,94.72
2018-08-13T08:21:12.356Z,95.88
2018-08-13T08:22:12.320Z,92.89
2018-08-13T08:23:12.390Z,92.84
2018-08-13T08:24:12.339Z,92.50
2018-08-13T08:25:12.344Z,94.04
2018-08-13T08:26:12.346Z,92.79
2018-08-13T08:27:12.343Z,92.07
2018-08-13T08:28:12.339Z,92.46
2018-08-13T08:29:12.402Z,92.84
2018-08-13T08:30:12.378Z,92.69
2018-08-13T08:31:12.435Z,91.83
2018-08-13T08:32:12.361Z,93.56
2018-08-13T08:33:12.375Z,94.72
2018-08-13T08:34:12.384Z,93.85
2018-08-13T08:35:12.369Z,92.60
2018-08-13T08:36:12.377Z,93.13
2018-08-13T08:37:12.388Z,91.06
2018-08-13T08:38:12.407Z,90.87
2018-08-13T08:39:12.396Z,90.92
2018-08-13T08:40:12.411Z,90.87
2018-08-13T08:41:12.413Z,90.77
2018-08-13T08:42:12.428Z,90.67
2018-08-13T08:43:12.424Z,90.00
2018-08-13T08:44:12.426Z,89.61
2018-08-13T08:45:12.431Z,90.38
2018-08-13T08:46:12.452Z,90.09
2018-08-13T08:47:12.426Z,90.96
2018-08-13T08:48:12.478Z,90.96
2018-08-13T08:49:12.460Z,90.58
2018-08-13T08:50:12.541Z,90.77
2018-08-13T08:51:12.447Z,90.81
2018-08-13T08:52:12.451Z,91.35
2018-08-13T08:53:12.461Z,91.44
2018-08-13T08:54:12.460Z,90.77
2018-08-13T08:55:13.112Z,90.96
2018-08-13T08:56:12.475Z,91.74
2018-08-13T08:57:12.464Z,91.74
2018-08-13T08:58:12.538Z,91.54
2018-08-13T08:59:12.498Z,93.57
2018-08-13T09:00:12.480Z,92.55
2018-08-13T09:01:12.501Z,93.85
2018-08-13T09:02:12.486Z,92.80
2018-08-13T09:03:12.499Z,93.47
2018-08-13T09:04:12.503Z,93.85
2018-08-13T09:05:12.496Z,93.47
2018-08-13T09:06:12.505Z,93.08
2018-08-13T09:07:12.759Z,93.04
2018-08-13T09:08:13.269Z,92.70
2018-08-13T09:09:12.510Z,93.47
2018-08-13T09:10:12.518Z,92.80
2018-08-13T09:11:12.535Z,93.28
2018-08-13T09:12:12.540Z,92.89
2018-08-13T09:13:12.587Z,93.47
2018-08-13T09:14:12.575Z,93.08
2018-08-13T09:15:12.558Z,92.16
2018-08-13T09:16:12.576Z,93.90
2018-08-13T09:17:12.602Z,93.62
2018-08-13T09:18:12.687Z,94.58
2018-08-13T09:19:12.599Z,94.58
2018-08-13T09:20:12.564Z,94.15
2018-08-13T09:21:12.692Z,94.43
2018-08-13T09:22:12.570Z,94.34
2018-08-13T09:23:13.123Z,93.66
2018-08-13T09:24:12.569Z,94.15
2018-08-13T09:25:12.566Z,94.29
2018-08-13T09:26:12.578Z,93.47
2018-08-13T09:27:12.647Z,94.10
2018-08-13T09:28:12.608Z,94.96
2018-08-13T09:29:12.658Z,94.48
2018-08-13T09:30:12.594Z,95.45
2018-08-13T09:31:12.597Z,94.34
2018-08-13T09:32:12.627Z,94.43
2018-08-13T09:33:13.006Z,94.53
2018-08-13T09:34:12.618Z,95.21
2018-08-13T09:35:12.630Z,95.35
2018-08-13T09:36:12.602Z,95.16
2018-08-13T09:37:12.616Z,95.74
2018-08-13T09:38:12.635Z,95.64
2018-08-13T09:39:13.135Z,95.74
2018-08-13T09:40:12.841Z,95.35
2018-08-13T09:41:12.670Z,95.25
2018-08-13T09:42:12.889Z,95.35
2018-08-13T09:43:12.647Z,95.54
2018-08-13T09:44:12.678Z,95.54
2018-08-13T09:45:12.692Z,95.45
2018-08-13T09:46:12.790Z,95.45
2018-08-13T09:47:13.634Z,95.25
2018-08-13T09:48:12.746Z,95.64
2018-08-13T09:49:13.643Z,95.64
2018-08-13T09:50:12.665Z,95.16
2018-08-13T09:51:12.694Z,95.74
2018-08-13T09:52:13.642Z,96.31
2018-08-13T09:53:12.680Z,95.78
2018-08-13T09:54:12.694Z,95.68
2018-08-13T09:55:12.692Z,95.20
2018-08-13T09:56:12.717Z,95.98
2018-08-13T09:57:12.703Z,95.68
2018-08-13T09:58:12.743Z,96.03
2018-08-13T09:59:12.698Z,96.22
2018-08-13T10:00:12.744Z,96.22
2018-08-13T10:01:12.745Z,96.61
2018-08-13T10:02:12.901Z,96.84
2018-08-13T10:03:12.710Z,96.31
2018-08-13T10:04:12.721Z,96.41
2018-08-13T10:05:12.742Z,95.97
2018-08-13T10:06:12.720Z,95.34
2018-08-13T10:07:12.730Z,93.84
2018-08-13T10:08:12.730Z,92.33
2018-08-13T10:09:12.853Z,93.02
2018-08-13T10:10:12.864Z,93.11
2018-08-13T10:11:12.760Z,92.63
2018-08-13T10:12:13.649Z,91.22
2018-08-13T10:13:12.787Z,90.64
2018-08-13T10:14:12.876Z,90.34
2018-08-13T10:15:12.778Z,86.99
2018-08-13T10:16:12.777Z,85.28
2018-08-13T10:17:12.792Z,83.71
2018-08-13T10:18:12.812Z,81.67
2018-08-13T10:19:12.801Z,79.90
2018-08-13T10:20:12.847Z,77.68
2018-08-13T10:21:12.806Z,73.65
2018-08-13T10:22:12.821Z,76.94
2018-08-13T10:23:15.716Z,79.68
2018-08-13T10:24:12.862Z,81.04
2018-08-13T10:25:12.894Z,83.22
2018-08-13T10:26:12.863Z,84.58
2018-08-13T10:27:12.883Z,83.95
2018-08-13T10:28:12.874Z,84.88
2018-08-13T10:29:12.875Z,83.36
2018-08-13T10:30:12.882Z,79.06
2018-08-13T10:31:12.902Z,75.82
2018-08-13T10:32:12.941Z,74.01
2018-08-13T10:33:12.916Z,74.00
2018-08-13T10:34:12.927Z,76.94
2018-08-13T10:35:13.012Z,76.98
2018-08-13T10:36:12.973Z,74.62
2018-08-13T10:37:12.975Z,73.25
2018-08-13T10:38:13.004Z,72.57
2018-08-13T10:39:13.022Z,71.92
2018-08-13T10:40:13.006Z,70.47
2018-08-13T10:41:13.011Z,69.01
2018-08-13T10:42:13.027Z,68.97
2018-08-13T10:43:13.048Z,69.01
2018-08-13T10:44:13.041Z,67.02
2018-08-13T10:45:13.057Z,67.02
2018-08-13T10:46:13.065Z,66.73
2018-08-13T10:47:13.101Z,66.50
2018-08-13T10:48:13.118Z,66.11
2018-08-13T10:49:13.155Z,66.89
2018-08-13T10:50:13.124Z,65.85
2018-08-13T10:51:13.140Z,65.07
2018-08-13T10:52:13.145Z,67.41
2018-08-13T10:53:13.182Z,68.58
2018-08-13T10:54:13.184Z,70.68
2018-08-13T10:55:13.180Z,72.60
2018-08-13T10:56:13.276Z,73.12
2018-08-13T10:57:13.248Z,71.41
2018-08-13T10:58:13.236Z,70.30
2018-08-13T10:59:13.245Z,71.72
2018-08-13T11:00:14.396Z,73.73
2018-08-13T11:01:13.270Z,74.63
2018-08-13T11:02:13.285Z,74.24
2018-08-13T11:03:13.314Z,75.21
2018-08-13T11:04:13.308Z,75.99
2018-08-13T11:05:13.325Z,74.51
2018-08-13T11:06:13.337Z,73.24
2018-08-13T11:07:13.341Z,74.73
2018-08-13T11:08:13.369Z,76.83
2018-08-13T11:09:13.370Z,77.86
2018-08-13T11:10:13.455Z,78.28
2018-08-13T11:11:13.406Z,77.10
2018-08-13T11:12:13.423Z,75.54
2018-08-13T11:13:13.418Z,75.02
2018-08-13T11:14:13.434Z,76.48
2018-08-13T11:15:13.438Z,77.35
2018-08-13T11:16:13.436Z,76.09
2018-08-13T11:17:13.462Z,77.64
2018-08-13T11:18:13.478Z,77.06
2018-08-13T11:19:13.479Z,76.18
2018-08-13T11:20:13.561Z,76.67
2018-08-13T11:21:13.490Z,78.67
2018-08-13T11:22:13.518Z,79.22
2018-08-13T11:23:13.517Z,80.77
2018-08-13T11:24:16.258Z,81.26
2018-08-13T11:25:13.552Z,81.31
2018-08-13T11:26:13.541Z,82.44
2018-08-13T11:27:13.550Z,84.52
2018-08-13T11:28:13.566Z,88.40
2018-08-13T11:29:13.579Z,88.24
2018-08-13T11:30:14.198Z,86.54
2018-08-13T11:31:14.243Z,85.28
2018-08-13T11:32:13.621Z,82.60
2018-08-13T11:33:13.620Z,82.27
2018-08-13T11:34:13.613Z,82.85
2018-08-13T11:35:13.630Z,83.78
2018-08-13T11:36:13.639Z,84.09
2018-08-13T11:37:13.656Z,86.71
2018-08-13T11:38:13.729Z,86.80
2018-08-13T11:39:13.668Z,86.99
2018-08-13T11:40:13.664Z,86.61
2018-08-13T11:41:13.670Z,86.61
2018-08-13T11:42:13.675Z,86.41
2018-08-13T11:43:13.708Z,86.12
2018-08-13T11:44:13.737Z,86.94
2018-08-13T11:45:13.699Z,84.85
2018-08-13T11:46:13.717Z,82.75
2018-08-13T11:47:13.714Z,83.14
2018-08-13T11:48:13.736Z,82.46
2018-08-13T11:49:13.737Z,81.59
2018-08-13T11:50:13.751Z,82.46
2018-08-13T11:51:13.819Z,82.46
2018-08-13T11:52:13.756Z,83.24
2018-08-13T11:53:13.783Z,82.07
2018-08-13T11:54:13.779Z,81.49
2018-08-13T11:55:13.808Z,82.27
2018-08-13T11:56:13.852Z,82.75
2018-08-13T11:57:13.797Z,82.95
2018-08-13T11:58:14.719Z,84.01
2018-08-13T11:59:13.817Z,82.11
2018-08-13T12:00:13.822Z,81.04
2018-08-13T12:01:14.743Z,79.63
2018-08-13T12:02:13.834Z,79.04
2018-08-13T12:03:13.866Z,78.46
2018-08-13T12:04:13.854Z,77.29
2018-08-13T12:05:13.854Z,77.29
2018-08-13T12:06:13.866Z,78.07
2018-08-13T12:07:13.883Z,78.94
2018-08-13T12:08:13.922Z,78.50
2018-08-13T12:09:13.903Z,77.27
2018-08-13T12:10:13.901Z,77.95
2018-08-13T12:11:13.941Z,76.88
2018-08-13T12:12:13.929Z,75.52
2018-08-13T12:13:13.916Z,75.65
2018-08-13T12:14:14.004Z,75.16
2018-08-13T12:15:13.935Z,75.91
2018-08-13T12:16:13.964Z,77.17
2018-08-13T12:17:13.951Z,76.55
2018-08-13T12:18:13.950Z,76.61
2018-08-13T12:19:14.068Z,77.62
2018-08-13T12:20:13.967Z,78.46
2018-08-13T12:21:13.976Z,80.94
2018-08-13T12:22:13.976Z,80.40
2018-08-13T12:23:14.010Z,79.72
2018-08-13T12:24:14.008Z,80.60
2018-08-13T12:25:14.022Z,82.11
2018-08-13T12:26:14.732Z,82.89
2018-08-13T12:27:14.015Z,82.56
2018-08-13T12:28:14.046Z,84.17
2018-08-13T12:29:14.226Z,83.59
2018-08-13T12:30:14.045Z,85.00
2018-08-13T12:31:14.060Z,86.22
2018-08-13T12:32:14.113Z,85.74
2018-08-13T12:33:14.070Z,86.80
2018-08-13T12:34:14.110Z,86.51
2018-08-13T12:35:14.113Z,86.51
2018-08-13T12:36:14.096Z,85.93
2018-08-13T12:37:14.093Z,85.49
2018-08-13T12:38:14.099Z,85.68
2018-08-13T12:39:14.102Z,84.85
2018-08-13T12:40:14.113Z,84.56
2018-08-13T12:41:14.136Z,85.10
2018-08-13T12:42:14.175Z,85.29
2018-08-13T12:43:14.144Z,84.52
2018-08-13T12:44:14.165Z,83.54
2018-08-13T12:45:14.152Z,84.61
2018-08-13T12:46:14.146Z,83.69
2018-08-13T12:47:14.177Z,83.97
2018-08-13T12:48:14.165Z,82.52
2018-08-13T12:49:14.176Z,83.39
2018-08-13T12:50:14.177Z,83.15
2018-08-13T12:51:14.195Z,83.94
2018-08-13T12:52:14.323Z,83.64
2018-08-13T12:53:14.200Z,84.61
2018-08-13T12:54:14.744Z,84.86
2018-08-13T12:55:14.226Z,85.44
2018-08-13T12:56:14.248Z,85.64